Terminal Aerodrome Forecast
Issued by NWS Cleveland, OH

Home | Current Version | Previous Version | Text Only | Print | Product List | Glossary On
Versions: 1 2 3 4 5 6 7 8 9 10 11 12 13 14 15 16 17 18 19 20 21 22
000
FTUS41 KCLE 231400 AAC
TAFMFD
TAF AMD
KMFD 231458Z 2315/2412 28010KT P6SM SCT020 BKN200
     FM231700 31011KT P6SM SCT015 BKN035
      TEMPO 2317/2319 4SM -SHRA BR OVC015
     FM231900 34010KT P6SM OVC015
     FM232100 35010KT P6SM BKN020
     FM240000 35009KT P6SM BKN030
     FM240600 36006KT P6SM SCT035=

USA.gov is the U.S. government's official web portal to all federal, state and local government web resources and services.